createdAt,value
2022-08-26T00:02:14.571Z,100208.83
2022-08-26T00:04:46.545Z,100208.09
2022-08-26T00:07:17.492Z,100204.72
2022-08-26T00:09:48.826Z,100206.52
2022-08-26T00:12:21.142Z,100202.30
2022-08-26T00:15:09.043Z,100199.85
2022-08-26T00:17:40.423Z,100198.15
2022-08-26T00:20:14.450Z,100195.58
2022-08-26T00:22:46.428Z,100193.95
2022-08-26T00:25:18.423Z,100196.16
2022-08-26T00:27:49.401Z,100193.45
2022-08-26T00:30:24.189Z,100193.27
2022-08-26T00:32:58.669Z,100191.71
2022-08-26T00:35:30.715Z,100184.89
2022-08-26T00:38:04.834Z,100182.45
2022-08-26T00:40:38.299Z,100180.94
2022-08-26T00:43:10.276Z,100185.09
2022-08-26T00:45:46.426Z,100182.21
2022-08-26T00:48:20.944Z,100183.71
2022-08-26T00:50:57.769Z,100179.30
2022-08-26T00:53:33.285Z,100177.43
2022-08-26T00:56:07.875Z,100173.61
2022-08-26T00:58:43.110Z,100172.74
2022-08-26T01:01:15.259Z,100171.89
2022-08-26T01:03:47.807Z,100172.41
2022-08-26T01:06:18.631Z,100172.38
2022-08-26T01:08:49.495Z,100173.47
2022-08-26T01:11:21.022Z,100170.52
2022-08-26T01:13:54.785Z,100165.37
2022-08-26T01:16:26.715Z,100171.79
2022-08-26T01:19:04.270Z,100171.17
2022-08-26T01:21:42.863Z,100173.64
2022-08-26T01:24:14.256Z,100173.69
2022-08-26T01:26:46.717Z,100168.77
2022-08-26T01:29:21.985Z,100166.22
2022-08-26T01:31:56.939Z,100165.58
2022-08-26T01:34:30.858Z,100165.38
2022-08-26T01:37:06.906Z,100168.94
2022-08-26T01:39:39.339Z,100167.24
2022-08-26T01:42:15.122Z,100164.24
2022-08-26T01:44:50.235Z,100159.33
2022-08-26T01:47:24.567Z,100165.73
2022-08-26T01:49:58.006Z,100162.77
2022-08-26T01:52:32.797Z,100164.99
2022-08-26T01:55:04.057Z,100165.30
2022-08-26T01:57:35.789Z,100168.70
2022-08-26T02:00:14.329Z,100168.11
2022-08-26T02:02:50.327Z,100171.18
2022-08-26T02:05:23.146Z,100170.30
2022-08-26T02:07:54.600Z,100169.59
2022-08-26T02:10:25.389Z,100172.42
2022-08-26T02:12:56.527Z,100175.05
2022-08-26T02:15:28.499Z,100176.06
2022-08-26T02:17:59.505Z,100173.66
2022-08-26T02:20:30.959Z,100168.14
2022-08-26T02:23:01.861Z,100168.58
2022-08-26T02:25:41.584Z,100171.85
2022-08-26T02:28:14.408Z,100169.80
2022-08-26T02:30:46.780Z,100166.61
2022-08-26T02:33:17.481Z,100167.61
2022-08-26T02:35:50.030Z,100171.44
2022-08-26T02:38:21.668Z,100170.81
2022-08-26T02:40:52.810Z,100166.46
2022-08-26T02:43:31.164Z,100168.56
2022-08-26T02:46:02.799Z,100168.79
2022-08-26T02:48:33.560Z,100170.70
2022-08-26T02:51:04.482Z,100168.16
2022-08-26T02:53:35.717Z,100165.32
2022-08-26T02:56:08.430Z,100164.51
2022-08-26T02:58:39.213Z,100162.85
2022-08-26T03:01:19.803Z,100162.20
2022-08-26T03:03:50.849Z,100155.69
2022-08-26T03:06:23.320Z,100157.27
2022-08-26T03:08:55.838Z,100157.48
2022-08-26T03:11:30.949Z,100162.17
2022-08-26T03:14:04.785Z,100160.70
2022-08-26T03:16:37.286Z,100158.52
2022-08-26T03:19:10.089Z,100158.35
2022-08-26T03:21:41.168Z,100155.27
2022-08-26T03:24:12.906Z,100153.70
2022-08-26T03:26:52.920Z,100152.70
2022-08-26T03:29:42.154Z,100150.02
2022-08-26T03:32:12.913Z,100147.10
2022-08-26T03:34:43.555Z,100143.85
2022-08-26T03:37:14.862Z,100145.74
2022-08-26T03:39:45.529Z,100150.88
2022-08-26T03:42:16.346Z,100150.46
2022-08-26T03:44:47.194Z,100145.52
2022-08-26T03:47:18.434Z,100145.85
2022-08-26T03:49:49.103Z,100143.25
2022-08-26T03:52:22.732Z,100141.57
2022-08-26T03:54:53.381Z,100143.42
2022-08-26T03:57:24.033Z,100139.09
2022-08-26T03:59:54.688Z,100143.11
2022-08-26T04:02:25.701Z,100145.65
2022-08-26T04:04:56.783Z,100142.95
2022-08-26T04:07:28.273Z,100144.05
2022-08-26T04:10:02.867Z,100139.81
2022-08-26T04:12:33.596Z,100137.47
2022-08-26T04:15:05.048Z,100135.84
2022-08-26T04:17:35.891Z,100133.95
2022-08-26T04:20:08.123Z,100132.93
2022-08-26T04:22:39.866Z,100135.36
2022-08-26T04:25:13.126Z,100136.65
2022-08-26T04:27:43.838Z,100139.95
2022-08-26T04:30:16.008Z,100139.55
2022-08-26T04:32:47.402Z,100140.33
2022-08-26T04:35:18.578Z,100142.54
2022-08-26T04:37:53.022Z,100148.42
2022-08-26T04:40:24.374Z,100143.55
2022-08-26T04:42:56.873Z,100142.50
2022-08-26T04:45:26.895Z,100141.23
2022-08-26T04:47:58.564Z,100140.69
2022-08-26T04:50:29.331Z,100139.17
2022-08-26T04:53:01.039Z,100138.50
2022-08-26T04:55:38.227Z,100136.89
2022-08-26T04:58:10.636Z,100140.17
2022-08-26T05:00:41.546Z,100140.38
2022-08-26T05:03:12.214Z,100141.24
2022-08-26T05:05:47.369Z,100139.23
2022-08-26T05:08:19.948Z,100139.70
2022-08-26T05:10:54.623Z,100142.48
2022-08-26T05:13:28.660Z,100139.19
2022-08-26T05:16:03.234Z,100143.35
2022-08-26T05:18:34.713Z,100142.51
2022-08-26T05:21:07.373Z,100143.30
2022-08-26T05:23:39.017Z,100146.92
2022-08-26T05:26:11.730Z,100149.85
2022-08-26T05:28:42.586Z,100152.05
2022-08-26T05:31:18.461Z,100149.21
2022-08-26T05:33:49.702Z,100150.38
2022-08-26T05:36:24.656Z,100146.85
2022-08-26T05:38:59.022Z,100147.29
2022-08-26T05:41:34.355Z,100144.48
2022-08-26T05:44:09.998Z,100143.50
2022-08-26T05:46:42.588Z,100140.36
2022-08-26T05:49:16.706Z,100146.65
2022-08-26T05:51:48.169Z,100147.36
2022-08-26T05:54:22.298Z,100145.54
2022-08-26T05:56:52.408Z,100145.38
2022-08-26T05:59:24.451Z,100146.57
2022-08-26T06:01:56.332Z,100145.45
2022-08-26T06:04:27.811Z,100148.59
2022-08-26T06:07:00.300Z,100148.42
2022-08-26T06:09:31.546Z,100145.55
2022-08-26T06:12:03.440Z,100148.25
2022-08-26T06:14:36.212Z,100150.63
2022-08-26T06:17:09.626Z,100150.77
2022-08-26T06:19:41.389Z,100152.14
2022-08-26T06:22:24.493Z,100151.70
2022-08-26T06:25:14.394Z,100157.51
2022-08-26T06:27:45.015Z,100157.22
2022-08-26T06:30:16.701Z,100158.79
2022-08-26T06:32:46.018Z,100159.35
2022-08-26T06:35:16.916Z,100157.72
2022-08-26T06:37:47.663Z,100156.88
2022-08-26T06:40:18.603Z,100157.58
2022-08-26T06:42:50.195Z,100152.77
2022-08-26T06:45:21.533Z,100150.82
2022-08-26T06:47:52.910Z,100144.72
2022-08-26T06:50:23.613Z,100140.73
2022-08-26T06:52:55.691Z,100142.18
2022-08-26T06:55:27.822Z,100133.04
2022-08-26T06:57:59.032Z,100139.35
2022-08-26T07:00:32.091Z,100138.70
2022-08-26T07:03:03.080Z,100138.03
2022-08-26T07:05:35.070Z,100137.38
2022-08-26T07:08:06.610Z,100139.05
2022-08-26T07:10:38.252Z,100136.80
2022-08-26T07:13:10.202Z,100135.63
2022-08-26T07:15:43.966Z,100126.88
2022-08-26T07:18:14.622Z,100130.81
2022-08-26T07:20:45.560Z,100133.45
2022-08-26T07:23:16.564Z,100135.00
2022-08-26T07:25:48.361Z,100133.63
2022-08-26T07:28:20.066Z,100137.94
2022-08-26T07:30:50.844Z,100135.86
2022-08-26T07:33:23.926Z,100139.73
2022-08-26T07:35:54.678Z,100135.98
2022-08-26T07:38:25.378Z,100133.65
2022-08-26T07:40:56.624Z,100128.23
2022-08-26T07:43:27.364Z,100126.08
2022-08-26T07:46:00.183Z,100121.75
2022-08-26T07:48:31.357Z,100123.17
2022-08-26T07:51:05.377Z,100122.92
2022-08-26T07:53:36.890Z,100121.56
2022-08-26T07:56:08.089Z,100120.60
2022-08-26T07:58:40.465Z,100120.05
2022-08-26T08:01:09.784Z,100116.85
2022-08-26T08:03:41.252Z,100116.23
2022-08-26T08:06:12.089Z,100115.16
2022-08-26T08:08:42.781Z,100113.69
2022-08-26T08:11:13.696Z,100112.89
2022-08-26T08:13:44.439Z,100109.79
2022-08-26T08:16:16.646Z,100112.23
2022-08-26T08:18:47.974Z,100110.59
2022-08-26T08:21:23.587Z,100103.71
2022-08-26T08:23:57.433Z,100094.51
2022-08-26T08:26:28.798Z,100087.27
2022-08-26T08:28:59.948Z,100087.20
2022-08-26T08:31:56.169Z,100088.07
2022-08-26T08:34:21.582Z,100085.55
2022-08-26T08:36:53.211Z,100079.58
2022-08-26T08:39:24.960Z,100075.08
2022-08-26T08:42:13.384Z,100074.58
2022-08-26T08:44:52.031Z,100072.11
2022-08-26T08:47:30.903Z,100071.63
2022-08-26T08:50:05.565Z,100062.46
2022-08-26T08:52:38.347Z,100057.74
2022-08-26T08:55:14.803Z,100057.00
2022-08-26T08:58:02.265Z,100048.00
2022-08-26T09:00:44.259Z,100048.76
2022-08-26T09:03:29.674Z,100052.39
2022-08-26T09:06:02.966Z,100052.16
2022-08-26T09:08:37.460Z,100053.60
2022-08-26T09:11:08.684Z,100053.59
2022-08-26T09:13:41.222Z,100054.17
2022-08-26T09:16:18.943Z,100048.59
2022-08-26T09:19:12.242Z,100043.27
2022-08-26T09:21:43.306Z,100038.02
2022-08-26T09:24:15.193Z,100035.62
2022-08-26T09:26:50.041Z,100034.56
2022-08-26T09:29:27.901Z,100036.66
2022-08-26T09:32:19.423Z,100033.81
2022-08-26T09:35:00.000Z,100033.27
2022-08-26T09:40:27.475Z,100030.72
2022-08-26T09:43:13.612Z,100032.52
2022-08-26T09:45:51.171Z,100034.98
2022-08-26T09:48:36.022Z,100035.39
2022-08-26T09:51:27.497Z,100040.96
2022-08-26T09:54:00.651Z,100039.44
2022-08-26T09:56:33.437Z,100030.70
2022-08-26T09:59:06.500Z,100030.98
2022-08-26T10:01:41.958Z,100032.64
2022-08-26T10:04:16.274Z,100036.61
2022-08-26T10:07:00.232Z,100030.46
2022-08-26T10:09:34.399Z,100018.30
2022-08-26T10:12:09.386Z,100011.98
2022-08-26T10:14:47.525Z,100003.30
2022-08-26T10:17:30.918Z,100002.31
2022-08-26T10:20:15.785Z,100003.38
2022-08-26T10:23:00.443Z,100012.83
2022-08-26T10:25:35.479Z,100017.03
2022-08-26T10:28:13.413Z,100017.33
2022-08-26T10:30:51.637Z,100019.19
2022-08-26T10:33:23.833Z,100018.33
2022-08-26T10:35:58.591Z,100010.54
2022-08-26T10:38:34.902Z,99999.23
2022-08-26T10:41:13.122Z,99995.08
2022-08-26T10:43:50.139Z,99986.48
2022-08-26T10:46:27.502Z,99978.55
2022-08-26T10:49:03.191Z,99975.54
2022-08-26T10:51:45.640Z,99981.34
2022-08-26T10:54:21.940Z,99991.77
2022-08-26T10:57:02.587Z,99997.34
2022-08-26T10:59:47.624Z,99996.45
2022-08-26T11:02:26.542Z,99993.02
2022-08-26T11:04:59.424Z,99983.28
2022-08-26T11:07:40.713Z,99979.41
2022-08-26T11:10:34.002Z,99967.89
2022-08-26T11:13:06.987Z,99966.67
2022-08-26T11:16:01.415Z,99968.85
2022-08-26T11:18:48.715Z,99973.70
2022-08-26T11:22:07.164Z,99980.89
2022-08-26T11:24:46.886Z,99983.33
2022-08-26T11:27:55.074Z,99974.37
2022-08-26T11:30:56.811Z,99964.45
2022-08-26T11:33:58.174Z,99957.52
2022-08-26T11:36:51.362Z,99951.23
2022-08-26T11:39:28.630Z,99938.80
2022-08-26T11:42:03.093Z,99931.64
2022-08-26T11:44:49.411Z,99919.23
2022-08-26T11:47:29.540Z,99908.48
2022-08-26T11:50:19.131Z,99903.30
2022-08-26T11:53:02.030Z,99893.08
2022-08-26T11:55:34.996Z,99885.04
2022-08-26T11:58:07.687Z,99886.83
2022-08-26T12:00:52.575Z,99880.69
2022-08-26T12:03:27.070Z,99875.71
2022-08-26T12:05:58.953Z,99866.14
2022-08-26T12:08:31.219Z,99868.55
2022-08-26T12:11:13.826Z,99864.98
2022-08-26T12:13:54.718Z,99864.31
2022-08-26T12:16:30.134Z,99861.55
2022-08-26T12:19:01.013Z,99865.02
2022-08-26T12:21:34.907Z,99859.11
2022-08-26T12:24:07.216Z,99855.38
2022-08-26T12:26:39.588Z,99855.46
2022-08-26T12:29:27.255Z,99850.25
2022-08-26T12:32:14.453Z,99851.14
2022-08-26T12:34:49.322Z,99851.80
2022-08-26T12:37:20.980Z,99852.02
2022-08-26T12:39:52.439Z,99853.48
2022-08-26T12:42:43.523Z,99847.88
2022-08-26T12:45:14.758Z,99844.08
2022-08-26T12:47:48.393Z,99843.27
2022-08-26T12:50:25.338Z,99841.90
2022-08-26T12:53:04.459Z,99844.28
2022-08-26T12:55:42.830Z,99844.24
2022-08-26T12:58:23.581Z,99839.81
2022-08-26T13:00:55.856Z,99843.39
2022-08-26T13:03:43.874Z,99842.33
2022-08-26T13:06:30.032Z,99843.48
2022-08-26T13:09:06.367Z,99836.52
2022-08-26T13:11:57.452Z,99837.52
2022-08-26T13:14:28.342Z,99832.11
2022-08-26T13:16:59.378Z,99831.55
2022-08-26T13:19:31.482Z,99828.63
2022-08-26T13:22:05.388Z,99825.23
2022-08-26T13:24:39.199Z,99818.59
2022-08-26T13:27:12.943Z,99810.39
2022-08-26T13:29:43.714Z,99806.98
2022-08-26T13:32:15.436Z,99810.89
2022-08-26T13:34:51.291Z,99818.17
2022-08-26T13:37:24.514Z,99824.06
2022-08-26T13:40:10.402Z,99832.38
2022-08-26T13:42:49.375Z,99833.89
2022-08-26T13:45:20.808Z,99831.51
2022-08-26T13:47:51.793Z,99830.18
2022-08-26T13:50:22.582Z,99833.23
2022-08-26T13:52:53.671Z,99825.05
2022-08-26T13:55:24.779Z,99827.46
2022-08-26T13:57:56.305Z,99820.79
2022-08-26T14:00:27.169Z,99818.02
2022-08-26T14:02:58.651Z,99813.14
2022-08-26T14:05:29.977Z,99811.82
2022-08-26T14:08:01.079Z,99821.23
2022-08-26T14:10:31.986Z,99831.29
2022-08-26T14:13:02.736Z,99827.40
2022-08-26T14:15:54.989Z,99829.20
2022-08-26T14:18:31.255Z,99822.48
2022-08-26T14:21:02.168Z,99818.48
2022-08-26T14:23:33.115Z,99808.19
2022-08-26T14:26:08.199Z,99801.21
2022-08-26T14:28:39.395Z,99794.98
2022-08-26T14:31:11.768Z,99798.14
2022-08-26T14:33:42.650Z,99802.98
2022-08-26T14:36:31.532Z,99806.49
2022-08-26T14:39:06.064Z,99807.11
2022-08-26T14:41:39.358Z,99796.75
2022-08-26T14:44:14.620Z,99788.95
2022-08-26T14:46:48.618Z,99787.91
2022-08-26T14:49:20.674Z,99784.03
2022-08-26T14:51:51.592Z,99789.51
2022-08-26T14:54:41.248Z,99788.56
2022-08-26T14:57:15.679Z,99782.77
2022-08-26T14:59:50.550Z,99780.20
2022-08-26T15:02:33.543Z,99776.16
2022-08-26T15:05:05.237Z,99767.21
2022-08-26T15:07:36.013Z,99766.89
2022-08-26T15:10:08.644Z,99765.47
2022-08-26T15:12:40.421Z,99765.45
2022-08-26T15:15:15.005Z,99773.70
2022-08-26T15:17:46.327Z,99779.98
2022-08-26T15:20:20.609Z,99790.59
2022-08-26T15:22:51.408Z,99794.16
2022-08-26T15:25:24.568Z,99795.36
2022-08-26T15:27:55.433Z,99792.80
2022-08-26T15:30:27.348Z,99782.70
2022-08-26T15:32:58.392Z,99783.58
2022-08-26T15:35:29.264Z,99782.73
2022-08-26T15:38:03.868Z,99782.73
2022-08-26T15:40:34.685Z,99783.84
2022-08-26T15:43:25.773Z,99783.66
2022-08-26T15:45:57.943Z,99782.49
2022-08-26T15:48:29.434Z,99788.54
2022-08-26T15:51:01.994Z,99797.25
2022-08-26T15:53:34.923Z,99805.32
2022-08-26T15:56:06.511Z,99812.92
2022-08-26T15:58:39.100Z,99816.48
2022-08-26T16:01:11.807Z,99816.58
2022-08-26T16:03:42.481Z,99821.80
2022-08-26T16:06:16.018Z,99822.46
2022-08-26T16:08:46.818Z,99814.06
2022-08-26T16:11:18.923Z,99823.46
2022-08-26T16:13:50.141Z,99826.79
2022-08-26T16:16:21.574Z,99832.52
2022-08-26T16:18:52.411Z,99829.63
2022-08-26T16:21:27.871Z,99827.16
2022-08-26T16:23:59.310Z,99832.24
2022-08-26T16:26:33.314Z,99835.23
2022-08-26T16:29:07.669Z,99844.17
2022-08-26T16:31:39.091Z,99844.54
2022-08-26T16:34:10.990Z,99835.22
2022-08-26T16:36:42.145Z,99834.64
2022-08-26T16:39:13.119Z,99828.02
2022-08-26T16:41:44.293Z,99816.30
2022-08-26T16:44:15.039Z,99813.86
2022-08-26T16:46:46.224Z,99816.23
2022-08-26T16:49:17.022Z,99821.59
2022-08-26T16:51:47.826Z,99831.73
2022-08-26T16:54:18.730Z,99829.13
2022-08-26T16:56:49.713Z,99825.58
2022-08-26T16:59:20.633Z,99813.35
2022-08-26T17:01:51.759Z,99812.16
2022-08-26T17:04:22.602Z,99814.83
2022-08-26T17:06:53.587Z,99817.45
2022-08-26T17:09:24.497Z,99810.04
2022-08-26T17:11:55.602Z,99803.77
2022-08-26T17:14:26.809Z,99807.88
2022-08-26T17:16:57.750Z,99817.17
2022-08-26T17:19:29.208Z,99821.96
2022-08-26T17:22:05.735Z,99823.99
2022-08-26T17:24:37.454Z,99819.12
2022-08-26T17:27:08.853Z,99813.14
2022-08-26T17:29:39.708Z,99810.86
2022-08-26T17:32:10.497Z,99808.41
2022-08-26T17:34:41.167Z,99803.54
2022-08-26T17:37:11.933Z,99798.02
2022-08-26T17:39:44.115Z,99790.55
2022-08-26T17:42:15.099Z,99784.49
2022-08-26T17:44:48.694Z,99779.91
2022-08-26T17:47:19.730Z,99777.48
2022-08-26T17:49:50.593Z,99776.52
2022-08-26T17:52:21.558Z,99770.67
2022-08-26T17:54:54.234Z,99761.43
2022-08-26T17:57:25.259Z,99766.50
2022-08-26T17:59:56.284Z,99774.59
2022-08-26T18:02:34.358Z,99787.96
2022-08-26T18:05:03.458Z,99792.13
2022-08-26T18:07:34.948Z,99798.30
2022-08-26T18:10:17.609Z,99814.52
2022-08-26T18:12:48.991Z,99820.65
2022-08-26T18:15:22.482Z,99814.71
2022-08-26T18:17:53.280Z,99808.20
2022-08-26T18:20:24.130Z,99813.18
2022-08-26T18:22:55.039Z,99814.35
2022-08-26T18:25:26.113Z,99814.85
2022-08-26T18:27:56.922Z,99806.71
2022-08-26T18:30:27.920Z,99802.21
2022-08-26T18:32:58.698Z,99800.09
2022-08-26T18:35:30.430Z,99810.39
2022-08-26T18:38:10.610Z,99825.70
2022-08-26T18:40:43.566Z,99839.63
2022-08-26T18:43:14.703Z,99846.13
2022-08-26T18:45:45.530Z,99851.25
2022-08-26T18:48:16.745Z,99856.98
2022-08-26T18:50:47.595Z,99860.17
2022-08-26T18:53:18.475Z,99871.29
2022-08-26T18:55:49.133Z,99870.40
2022-08-26T18:58:19.880Z,99875.45
2022-08-26T19:00:50.595Z,99866.27
2022-08-26T19:03:21.487Z,99859.86
2022-08-26T19:05:52.563Z,99857.64
2022-08-26T19:08:23.381Z,99857.98
2022-08-26T19:10:54.075Z,99858.44
2022-08-26T19:13:24.836Z,99856.08
2022-08-26T19:15:55.677Z,99857.71
2022-08-26T19:18:26.486Z,99852.20
2022-08-26T19:20:57.434Z,99856.70
2022-08-26T19:23:32.255Z,99851.64
2022-08-26T19:26:06.823Z,99844.75
2022-08-26T19:28:39.733Z,99845.98
2022-08-26T19:31:11.719Z,99846.20
2022-08-26T19:33:45.114Z,99844.21
2022-08-26T19:36:17.881Z,99862.17
2022-08-26T19:38:49.313Z,99879.08
2022-08-26T19:41:24.562Z,99865.99
2022-08-26T19:43:58.987Z,99867.33
2022-08-26T19:46:30.628Z,99866.95
2022-08-26T19:49:01.367Z,99848.90
2022-08-26T19:51:34.933Z,99841.09
2022-08-26T19:54:06.637Z,99836.88
2022-08-26T19:56:37.557Z,99830.61
2022-08-26T19:59:08.243Z,99821.29
2022-08-26T20:01:39.058Z,99813.85
2022-08-26T20:04:10.139Z,99804.94
2022-08-26T20:06:40.864Z,99797.70
2022-08-26T20:09:11.930Z,99796.59
2022-08-26T20:11:42.716Z,99800.48
2022-08-26T20:14:13.606Z,99811.42
2022-08-26T20:16:47.591Z,99812.64
2022-08-26T20:19:37.607Z,99818.45
2022-08-26T20:22:08.875Z,99823.85
2022-08-26T20:24:40.014Z,99831.92
2022-08-26T20:27:10.835Z,99842.32
2022-08-26T20:29:43.047Z,99851.88
2022-08-26T20:32:14.253Z,99858.22
2022-08-26T20:34:45.226Z,99858.86
2022-08-26T20:37:16.191Z,99863.61
2022-08-26T20:39:52.570Z,99858.28
2022-08-26T20:42:23.390Z,99857.06
2022-08-26T20:44:54.768Z,99853.40
2022-08-26T20:47:24.376Z,99854.50
2022-08-26T20:49:55.168Z,99845.15
2022-08-26T20:52:26.445Z,99848.73
2022-08-26T20:54:57.173Z,99843.59
2022-08-26T20:57:28.079Z,99843.22
2022-08-26T20:59:58.852Z,99844.41
2022-08-26T21:02:29.692Z,99842.45
2022-08-26T21:05:00.859Z,99844.09
2022-08-26T21:07:31.625Z,99846.80
2022-08-26T21:10:02.362Z,99849.45
2022-08-26T21:12:33.033Z,99847.27
2022-08-26T21:15:04.538Z,99843.96
2022-08-26T21:17:35.887Z,99840.77
2022-08-26T21:20:08.466Z,99842.87
2022-08-26T21:22:39.234Z,99844.63
2022-08-26T21:25:11.417Z,99842.39
2022-08-26T21:27:42.127Z,99846.16
2022-08-26T21:30:15.529Z,99848.35
2022-08-26T21:32:46.311Z,99847.27
2022-08-26T21:35:17.462Z,99849.98
2022-08-26T21:37:48.221Z,99849.98
2022-08-26T21:40:19.494Z,99849.34
2022-08-26T21:42:50.463Z,99848.91
2022-08-26T21:45:21.538Z,99841.98
2022-08-26T21:47:52.469Z,99841.42
2022-08-26T21:50:23.512Z,99840.05
2022-08-26T21:52:54.262Z,99838.60
2022-08-26T21:55:25.025Z,99834.51
2022-08-26T21:57:56.282Z,99824.05
2022-08-26T22:00:28.517Z,99824.51
2022-08-26T22:03:00.915Z,99819.52
2022-08-26T22:05:32.476Z,99820.40
2022-08-26T22:08:03.308Z,99825.64
2022-08-26T22:10:34.427Z,99828.20
2022-08-26T22:13:06.566Z,99825.84
2022-08-26T22:15:40.460Z,99820.34
2022-08-26T22:18:11.302Z,99821.90
2022-08-26T22:20:44.401Z,99832.08
2022-08-26T22:23:15.156Z,99836.48
2022-08-26T22:25:46.316Z,99835.83
2022-08-26T22:28:17.740Z,99838.55
2022-08-26T22:30:49.581Z,99839.42
2022-08-26T22:33:22.695Z,99842.16
2022-08-26T22:35:54.596Z,99839.96
2022-08-26T22:38:25.506Z,99834.17
2022-08-26T22:40:57.508Z,99840.59
2022-08-26T22:43:29.957Z,99833.22
2022-08-26T22:46:00.862Z,99829.98
2022-08-26T22:48:31.787Z,99833.34
2022-08-26T22:51:02.534Z,99827.96
2022-08-26T22:53:35.855Z,99828.86
2022-08-26T22:56:09.858Z,99828.63
2022-08-26T22:58:40.614Z,99830.67
2022-08-26T23:01:11.450Z,99833.86
2022-08-26T23:03:42.413Z,99833.94
2022-08-26T23:06:13.614Z,99841.45
2022-08-26T23:08:47.532Z,99843.91
2022-08-26T23:11:19.199Z,99849.25
2022-08-26T23:13:50.424Z,99853.80
2022-08-26T23:16:21.451Z,99859.46
2022-08-26T23:18:52.283Z,99856.48
2022-08-26T23:21:25.517Z,99860.70
2022-08-26T23:23:56.409Z,99865.90
2022-08-26T23:26:27.231Z,99869.20
2022-08-26T23:28:58.514Z,99873.09
2022-08-26T23:31:29.447Z,99876.09
2022-08-26T23:34:18.275Z,99879.23
2022-08-26T23:36:49.322Z,99875.95
2022-08-26T23:39:26.380Z,99870.37
2022-08-26T23:41:58.175Z,99875.55
2022-08-26T23:44:30.544Z,99876.18
2022-08-26T23:47:02.375Z,99875.77
2022-08-26T23:49:33.884Z,99876.67
2022-08-26T23:52:24.231Z,99876.93
2022-08-26T23:54:55.634Z,99874.49
2022-08-26T23:57:28.759Z,99875.48
2022-08-26T23:59:59.574Z,99877.95
